createdAt,value
2023-01-28T00:03:14.376Z,10.4
2023-01-28T00:08:14.732Z,10.4
2023-01-28T00:13:14.361Z,10.4
2023-01-28T00:18:14.344Z,10.3
2023-01-28T00:23:14.363Z,10.3
2023-01-28T00:28:14.329Z,10.1
2023-01-28T00:33:14.404Z,10
2023-01-28T00:38:14.778Z,10
2023-01-28T00:43:14.411Z,9.9
2023-01-28T00:48:14.470Z,10
2023-01-28T00:53:14.668Z,10.1
2023-01-28T00:58:14.372Z,10
2023-01-28T01:03:14.385Z,10
2023-01-28T01:08:14.379Z,10
2023-01-28T01:13:14.376Z,10
2023-01-28T01:18:19.059Z,10
2023-01-28T01:23:14.604Z,10
2023-01-28T01:28:14.391Z,10
2023-01-28T01:33:15.277Z,10
2023-01-28T01:38:14.364Z,10.1
2023-01-28T01:43:14.338Z,10.1
2023-01-28T01:48:15.852Z,10.1
2023-01-28T01:53:15.684Z,10.3
2023-01-28T01:58:14.357Z,10.9
2023-01-28T02:03:15.394Z,11
2023-01-28T02:08:14.439Z,11.1
2023-01-28T02:13:14.853Z,11.2
2023-01-28T02:18:14.365Z,11.3
2023-01-28T02:23:14.364Z,11.3
2023-01-28T02:28:15.363Z,11.3
2023-01-28T02:33:14.347Z,11.5
2023-01-28T02:38:14.368Z,11.8
2023-01-28T02:43:15.353Z,12
2023-01-28T02:48:14.390Z,12.4
2023-01-28T02:53:14.369Z,12.4
2023-01-28T02:58:14.370Z,12.4
2023-01-28T03:03:14.507Z,12.3
2023-01-28T03:08:14.542Z,12.2
2023-01-28T03:13:14.398Z,12
2023-01-28T03:18:15.208Z,12.1
2023-01-28T03:23:14.368Z,12.1
2023-01-28T03:28:14.364Z,12
2023-01-28T03:33:14.362Z,12
2023-01-28T03:38:14.364Z,12.1
2023-01-28T03:43:14.609Z,12.1
2023-01-28T03:48:14.376Z,12.1
2023-01-28T03:53:18.384Z,12
2023-01-28T03:58:14.364Z,11.6
2023-01-28T04:03:14.412Z,11.4
2023-01-28T04:08:14.472Z,11.4
2023-01-28T04:13:15.366Z,11.4
2023-01-28T04:18:14.383Z,11.4
2023-01-28T04:23:14.375Z,11.4
2023-01-28T04:28:14.400Z,11.4
2023-01-28T04:33:14.369Z,11.5
2023-01-28T04:38:14.375Z,11.6
2023-01-28T04:43:14.380Z,11.6
2023-01-28T04:48:14.402Z,12.2
2023-01-28T04:53:14.412Z,12.3
2023-01-28T04:58:14.475Z,12.3
2023-01-28T05:03:14.396Z,12.3
2023-01-28T05:08:14.405Z,12.3
2023-01-28T05:13:14.392Z,13.1
2023-01-28T05:18:14.378Z,13.4
2023-01-28T05:23:14.387Z,13.5
2023-01-28T05:28:14.382Z,13.9
2023-01-28T05:33:14.463Z,13.9
2023-01-28T05:38:17.399Z,13.9
2023-01-28T05:43:14.389Z,14.7
2023-01-28T05:53:14.434Z,15.3
2023-01-28T05:58:14.395Z,15.45
2023-01-28T06:03:14.384Z,15.6
2023-01-28T06:08:14.406Z,15.85
2023-01-28T06:13:14.411Z,16.1
2023-01-28T06:18:14.433Z,16.4
2023-01-28T06:23:14.474Z,16.6
2023-01-28T06:28:14.392Z,16.7
2023-01-28T06:33:14.420Z,16.8
2023-01-28T06:38:14.399Z,17.1
2023-01-28T06:43:14.396Z,17.4
2023-01-28T06:48:14.415Z,17.4
2023-01-28T06:53:14.455Z,18.1
2023-01-28T06:58:14.426Z,18.1
2023-01-28T07:03:14.518Z,17.6
2023-01-28T07:08:14.516Z,18.1
2023-01-28T07:13:14.408Z,17.7
2023-01-28T07:18:14.431Z,17.7
2023-01-28T07:28:14.414Z,18.5
2023-01-28T07:33:14.505Z,18.45
2023-01-28T07:38:14.462Z,18.4
2023-01-28T07:43:14.422Z,18.1
2023-01-28T07:48:14.446Z,18.3
2023-01-28T07:53:14.481Z,18.2
2023-01-28T07:58:14.408Z,18.3
2023-01-28T08:03:14.478Z,18.3
2023-01-28T08:08:14.489Z,18.3
2023-01-28T08:13:14.455Z,18.3
2023-01-28T08:18:14.474Z,18.3
2023-01-28T08:23:14.562Z,18.3
2023-01-28T08:28:14.539Z,18.8
2023-01-28T08:33:14.428Z,18.8
2023-01-28T08:38:14.450Z,18.8
2023-01-28T08:43:14.450Z,18.8
2023-01-28T08:48:14.461Z,18.7
2023-01-28T08:53:14.448Z,18.7
2023-01-28T08:58:14.444Z,18.7
2023-01-28T09:03:14.431Z,18.3
2023-01-28T09:08:14.481Z,16.9
2023-01-28T09:13:14.764Z,16.8
2023-01-28T09:18:14.489Z,16.7
2023-01-28T09:23:14.441Z,16.7
2023-01-28T09:28:14.543Z,16.7
2023-01-28T09:33:14.455Z,16.6
2023-01-28T09:38:14.432Z,16.6
2023-01-28T09:43:14.448Z,16.6
2023-01-28T09:48:14.466Z,16
2023-01-28T09:53:14.438Z,15.5
2023-01-28T09:58:14.524Z,15.4
2023-01-28T10:03:14.446Z,14.8
2023-01-28T10:08:14.457Z,14.6
2023-01-28T10:13:14.514Z,13.4
2023-01-28T10:18:20.461Z,13.4
2023-01-28T10:23:14.432Z,13.4
2023-01-28T10:28:14.443Z,13.3
2023-01-28T10:33:14.493Z,12.7
2023-01-28T10:38:14.466Z,12.2
2023-01-28T10:43:14.451Z,11.9
2023-01-28T10:48:14.443Z,11.5
2023-01-28T10:53:14.601Z,11.2
2023-01-28T10:58:14.472Z,11.2
2023-01-28T11:03:14.480Z,10.9
2023-01-28T11:08:14.449Z,10.9
2023-01-28T11:13:14.470Z,10.9
2023-01-28T11:18:14.571Z,10.4
2023-01-28T11:23:14.445Z,10.4
2023-01-28T11:28:14.484Z,10.4
2023-01-28T11:33:14.486Z,10
2023-01-28T11:38:14.479Z,10
2023-01-28T11:43:14.458Z,10
2023-01-28T11:48:14.465Z,9.9
2023-01-28T11:53:17.481Z,9.9
2023-01-28T11:58:14.464Z,9.9
2023-01-28T12:03:14.492Z,9.7
2023-01-28T12:08:14.473Z,9.7
2023-01-28T12:13:14.472Z,9.4
2023-01-28T12:18:14.518Z,9.4
2023-01-28T12:23:14.492Z,9.7
2023-01-28T12:28:14.507Z,9.9
2023-01-28T12:33:16.040Z,10
2023-01-28T12:38:14.481Z,10
2023-01-28T12:43:14.469Z,11
2023-01-28T12:48:14.459Z,14
2023-01-28T12:53:14.466Z,11
2023-01-28T12:58:14.513Z,9.9
2023-01-28T13:03:14.570Z,9
2023-01-28T13:08:14.470Z,9
2023-01-28T13:13:14.494Z,11
2023-01-28T13:18:14.571Z,9.1
2023-01-28T13:23:14.571Z,9
2023-01-28T13:28:14.655Z,9
2023-01-28T13:33:14.525Z,9
2023-01-28T13:38:14.479Z,8.8
2023-01-28T13:43:14.583Z,8.8
2023-01-28T13:48:14.485Z,8.8
2023-01-28T13:53:14.494Z,8.8
2023-01-28T13:58:14.504Z,8.8
2023-01-28T14:03:14.489Z,8.8
2023-01-28T14:08:14.519Z,8.8
2023-01-28T14:13:14.495Z,8.8
2023-01-28T14:18:14.508Z,8.8
2023-01-28T14:23:14.522Z,9.1
2023-01-28T14:28:14.542Z,9.3
2023-01-28T14:33:14.522Z,10.7
2023-01-28T14:38:14.508Z,10.7
2023-01-28T14:43:14.545Z,9.3
2023-01-28T14:48:14.515Z,9.3
2023-01-28T14:53:14.481Z,9.1
2023-01-28T14:58:14.511Z,8.8
2023-01-28T15:03:25.072Z,8.8
2023-01-28T15:08:14.620Z,8.5
2023-01-28T15:13:14.522Z,8.5
2023-01-28T15:18:14.514Z,8.8
2023-01-28T15:23:14.519Z,8.8
2023-01-28T15:28:14.557Z,8.9
2023-01-28T15:33:15.556Z,8.9
2023-01-28T15:38:14.491Z,9.3
2023-01-28T15:43:14.536Z,9.3
2023-01-28T15:48:14.748Z,9.5
2023-01-28T15:53:14.507Z,9.5
2023-01-28T15:58:14.506Z,9.5
2023-01-28T16:03:14.588Z,9.5
2023-01-28T16:08:14.518Z,9.8
2023-01-28T16:13:14.513Z,9.8
2023-01-28T16:18:14.544Z,9.8
2023-01-28T16:23:14.499Z,9.8
2023-01-28T16:28:14.553Z,9.8
2023-01-28T16:33:14.544Z,9.8
2023-01-28T16:38:14.542Z,10.7
2023-01-28T16:43:14.513Z,10.7
2023-01-28T16:48:22.158Z,10.7
2023-01-28T16:53:14.531Z,9.7
2023-01-28T16:58:14.542Z,10.4
2023-01-28T17:03:14.527Z,10.4
2023-01-28T17:08:14.539Z,9.7
2023-01-28T17:13:14.498Z,9.7
2023-01-28T17:18:14.527Z,9.7
2023-01-28T17:23:14.507Z,9.7
2023-01-28T17:28:14.575Z,10.2
2023-01-28T17:33:14.526Z,10.2
2023-01-28T17:38:14.518Z,10.2
2023-01-28T17:43:14.598Z,10.2
2023-01-28T17:48:14.519Z,10.3
2023-01-28T17:53:14.545Z,10.4
2023-01-28T17:58:14.653Z,10.7
2023-01-28T18:03:37.416Z,10.4
2023-01-28T18:08:14.597Z,10.3
2023-01-28T18:13:14.583Z,10.4
2023-01-28T18:18:14.553Z,10.3
2023-01-28T18:23:14.551Z,10.7
2023-01-28T18:28:14.618Z,10.2
2023-01-28T18:33:14.539Z,10.2
2023-01-28T18:38:14.538Z,10.4
2023-01-28T18:43:14.582Z,10.4
2023-01-28T18:48:14.555Z,10.4
2023-01-28T18:53:14.607Z,10.5
2023-01-28T18:58:14.577Z,10.5
2023-01-28T19:03:14.575Z,11.6
2023-01-28T19:08:14.536Z,11.6
2023-01-28T19:13:14.555Z,13.3
2023-01-28T19:18:14.554Z,16.7
2023-01-28T19:23:14.606Z,17.2
2023-01-28T19:28:14.809Z,17.9
2023-01-28T19:33:14.538Z,17.2
2023-01-28T19:38:14.570Z,17.2
2023-01-28T19:43:14.552Z,17.2
2023-01-28T19:48:14.553Z,12.2
2023-01-28T19:53:14.552Z,12.2
2023-01-28T19:58:14.604Z,12.1
2023-01-28T20:03:14.577Z,12
2023-01-28T20:08:14.649Z,11.9
2023-01-28T20:13:14.627Z,11.8
2023-01-28T20:18:14.571Z,11.9
2023-01-28T20:23:14.608Z,12
2023-01-28T20:28:14.632Z,11.9
2023-01-28T20:33:14.585Z,11.9
2023-01-28T20:38:14.748Z,11.9
2023-01-28T20:43:14.567Z,11.8
2023-01-28T20:48:14.552Z,11.8
2023-01-28T20:53:14.590Z,11.5
2023-01-28T20:58:14.577Z,11.4
2023-01-28T21:03:14.590Z,11.2
2023-01-28T21:08:14.671Z,11.2
2023-01-28T21:13:14.600Z,11.2
2023-01-28T21:18:14.632Z,11.2
2023-01-28T21:23:14.676Z,11.2
2023-01-28T21:28:14.658Z,11.2
2023-01-28T21:33:14.640Z,11.2
2023-01-28T21:38:14.641Z,11.3
2023-01-28T21:43:15.669Z,11.5
2023-01-28T21:48:14.763Z,11.7
2023-01-28T21:53:14.669Z,11.7
2023-01-28T21:58:14.683Z,11.7
2023-01-28T22:03:14.599Z,11.8
2023-01-28T22:08:14.595Z,12.2
2023-01-28T22:13:14.580Z,12.2
2023-01-28T22:18:14.585Z,12.2
2023-01-28T22:23:14.563Z,12.1
2023-01-28T22:28:14.633Z,11.7
2023-01-28T22:33:14.635Z,11.9
2023-01-28T22:38:14.640Z,11.9
2023-01-28T22:43:14.744Z,11.7
2023-01-28T22:48:14.601Z,11.7
2023-01-28T22:53:14.611Z,11.7
2023-01-28T22:58:14.590Z,11.7
2023-01-28T23:03:14.624Z,11.7
2023-01-28T23:08:14.592Z,11.5
2023-01-28T23:13:14.717Z,11.3
2023-01-28T23:18:14.647Z,11.5
2023-01-28T23:23:14.680Z,11.5
2023-01-28T23:28:14.638Z,11.4
2023-01-28T23:33:14.638Z,11.5
2023-01-28T23:38:14.653Z,11.5
2023-01-28T23:43:14.623Z,11.4
2023-01-28T23:48:14.600Z,11.4
2023-01-28T23:53:14.660Z,11.4
2023-01-28T23:58:14.650Z,11.4
